COJ weather

Coonabarabran Airport
New South Wales, Australia

Public forecast

Using degrees Celsius for public forecast. Weather courtesy of forecast.io.

Current aviation weather report (METAR) for Coonabarabran Airport

Retrieved 2019/12/11 08:00 UTC (7 minutes ago):

YCBB 110800Z AUTO 22017KT 9999 // NCD 33/M01 Q1010

Closest aviation forecast (TAF) to Coonabarabran Airport

Forecast is more than 6 hours old.

Closest forecast is Dubbo City Regional Airport, 63.8 nm (118.1 km) SSW. Retrieved 2019-12-11 00:37 UTC (8 hours ago):

TAF YSDU 102247Z 1100/1118 09010KT 3000 -FU NSC BECMG 1101/1103 25012KT 8000 -FU NSC FM110500 25015KT CAVOK FM110900 22010KT CAVOK BECMG 1114/1116 11008KT 6000 FU NSC PROB30 1100/1102 1000 +FU NSC PROB30 1116/1118 3000 FU